Home > Products > Valid Products > TAF

000
FTUS44 KEWX 282352
TAFDRT
TAF
KDRT 282352Z 2900/2924 13014G24KT P6SM SCT050
     FM290100 11010KT P6SM SCT040
     FM290500 11008KT P6SM BKN012
     FM290700 12007KT 5SM BR OVC008
     FM291500 35008KT P6SM OVC015=



000
FTUS44 KEWX 282352
TAFSAT
TAF
KSAT 282352Z 2900/3006 09008KT 6SM HZ BKN018
     FM290200 13010KT P6SM OVC012
     FM290400 15008KT 5SM BR OVC007
     FM291600 16012KT 5SM BR VCSH BKN012 OVC035
     FM291900 16012G22KT P6SM VCTS BKN035CB=



000
FTUS44 KEWX 282352
TAFAUS
TAF
KAUS 282352Z 2900/3006 15012KT P6SM VCTS BKN035CB
     FM290300 14012KT P6SM OVC015
     FM290500 16008KT 5SM BR OVC008
     FM291600 16012KT 5SM BR VCSH BKN015 OVC035
     FM292100 17015G25KT P6SM VCTS BKN035CB=



000
FTUS44 KEWX 282252 AAA
TAFSAT
TAF AMD
KSAT 282252Z 2823/2924 12012KT 6SM HZ BKN018
     FM290200 13010KT P6SM OVC012
     FM290400 15008KT 5SM BR OVC007
     FM291600 16012KT 5SM BR VCSH BKN012 OVC035
     FM291900 16012G22KT P6SM VCTS BKN035CB=



000
FTUS44 KEWX 281900 AAA
TAFDRT
TAF AMD
KDRT 281900Z 2819/2918 13014G24KT P6SM BKN035
     FM290100 11010KT P6SM BKN035
     FM290500 11008KT P6SM BKN012
     FM290700 12007KT 5SM BR OVC008
     FM291500 35008KT P6SM OVC015=



000
FTUS44 KEWX 281900 AAA
TAFDRT
TAF AMD
KDRT 281900Z 2819/2918 13014G24KT P6SM BKN035
     FM290100 11010KT P6SM BKN035
     FM290500 11008KT P6SM BKN012
     FM290700 12007KT 5SM BR OVC008
     FM291500 35008KT P6SM OVC015=



000
FTUS44 KEWX 281859 AAA
TAFAUS
TAF AMD
KAUS 281859Z 2819/2924 09010KT P6SM SCT035
     FM282000 12012KT P6SM BKN035
     FM290300 14012KT P6SM OVC015
     FM290500 16008KT 5SM BR OVC008
     FM291600 16012KT 5SM BR VCSH BKN015 OVC035
     FM292100 17015G25KT P6SM VCTS BKN035CB=



000
FTUS44 KEWX 281859 AAA
TAFAUS
TAF AMD
KAUS 281859Z 2819/2924 09010KT P6SM SCT035
     FM282000 12012KT P6SM BKN035
     FM290300 14012KT P6SM OVC015
     FM290500 16008KT 5SM BR OVC008
     FM291600 16012KT 5SM BR VCSH BKN015 OVC035
     FM292100 17015G25KT P6SM VCTS BKN035CB=



000
FTUS44 KEWX 281741
TAFDRT
TAF
KDRT 281741Z 2818/2918 12014G24KT 5SM HZ BKN035
     FM290100 11010KT P6SM BKN035
     FM290500 11008KT P6SM BKN012
     FM290700 12007KT 5SM BR OVC008
     FM291500 35008KT P6SM OVC015=



000
FTUS44 KEWX 281741
TAFAUS
TAF
KAUS 281741Z 2818/2924 13012KT P6SM SCT030 BKN035
     FM290300 14012KT P6SM OVC015
     FM290500 16008KT 5SM BR OVC008
     FM291600 16012KT 5SM BR VCSH BKN015 OVC035
     FM292100 17015G25KT P6SM VCTS BKN035CB=



000
FTUS44 KEWX 281741
TAFSAT
TAF
KSAT 281741Z 2818/2924 12012KT P6SM SCT030 BKN035
     FM290200 13010KT P6SM OVC012
     FM290400 15008KT 5SM BR OVC007
     FM291600 16012KT 5SM BR VCSH BKN012 OVC035
     FM291900 16012G22KT P6SM VCTS BKN035CB=



000
FTUS44 KEWX 281715 AAF
TAFDRT
TAF AMD
KDRT 281715Z 2817/2912 13014G24KT 5SM HZ OVC035
     FM290200 11009KT P6SM SCT035
     FM290600 11008KT P6SM BKN012=



000
FTUS44 KEWX 281711 AAB
TAFSAT
TAF AMD
KSAT 281711Z 2817/2918 11012KT P6SM SCT030
     FM281900 13012G22KT P6SM BKN035
     FM290200 14010KT P6SM OVC014
     FM290500 16008KT P6SM OVC007
     FM291500 16011KT P6SM VCSH BKN012 OVC035=



000
FTUS44 KEWX 281711 AAB
TAFSAT
TAF AMD
KSAT 281711Z 2817/2918 11012KT P6SM SCT030
     FM281900 13012G22KT P6SM BKN035
     FM290200 14010KT P6SM OVC014
     FM290500 16008KT P6SM OVC007
     FM291500 16011KT P6SM VCSH BKN012 OVC035=



000
FTUS44 KEWX 281710 AAC
TAFAUS
TAF AMD
KAUS 281710Z 2817/2918 11010KT P6SM SCT028
     FM282200 13012KT P6SM BKN035
     FM290200 14012KT P6SM OVC018
     FM290500 16008KT P6SM OVC007
     FM291500 16012KT P6SM VCSH BKN012 OVC035=



000
FTUS44 KEWX 281710 AAC
TAFAUS
TAF AMD
KAUS 281710Z 2817/2918 11010KT P6SM SCT028
     FM282200 13012KT P6SM BKN035
     FM290200 14012KT P6SM OVC018
     FM290500 16008KT P6SM OVC007
     FM291500 16012KT P6SM VCSH BKN012 OVC035=



000
FTUS44 KEWX 281609 AAE
TAFDRT
TAF AMD
KDRT 281609Z 2816/2912 12012G22KT 5SM HZ SCT015 OVC025
     FM281700 13014G24KT P6SM SCT035
     FM290100 11009KT P6SM SCT035
     FM290600 11008KT P6SM BKN012=



000
FTUS44 KEWX 281532 AAA
TAFSAT
TAF AMD
KSAT 281532Z 2816/2918 13012KT P6SM BKN017 BKN028
     FM281630 13012KT P6SM FEW020
     FM282000 13012KT P6SM BKN035
     FM290200 14010KT P6SM OVC014
     FM290500 16008KT P6SM OVC007
     FM291500 16011KT P6SM VCSH BKN012 OVC035=



000
FTUS44 KEWX 281506 AAB
TAFAUS
TAF AMD
KAUS 281506Z 2815/2918 15005KT P6SM FEW012 SCT025
     FM281600 15012KT P6SM FEW040
     FM282200 15014KT P6SM BKN035
     FM290200 14012KT P6SM OVC018
     FM290500 16008KT P6SM OVC007
     FM291500 16012KT P6SM VCSH BKN012 OVC035=



000
FTUS44 KEWX 281441 AAD
TAFDRT
TAF AMD
KDRT 281441Z 2815/2912 10010KT 2SM BR OVC008
     FM281600 12012KT 5SM BR BKN025
     FM281700 13015KT P6SM SCT035
     FM290100 11009KT P6SM SCT035
     FM290600 11008KT P6SM BKN012=



000
FTUS44 KEWX 281424 AAA
TAFAUS
TAF AMD
KAUS 281424Z 2814/2918 15006KT P6SM SCT011 BKN025
     FM281600 15012KT P6SM FEW040
     FM282200 15014KT P6SM BKN035
     FM290200 14012KT P6SM OVC018
     FM290500 16008KT P6SM OVC007
     FM291500 16012KT P6SM VCSH BKN012 OVC035=



000
FTUS44 KEWX 281419 AAC
TAFDRT
TAF AMD
KDRT 281419Z 2814/2912 10009KT 3/4SM -RA BR OVC003
     FM281530 11010KT 3SM BR OVC006
     FM281630 12012KT 5SM BR BKN025
     FM281800 13015KT P6SM SCT035
     FM290100 11009KT P6SM SCT035
     FM290600 11008KT P6SM BKN012=



000
FTUS44 KEWX 281311 AAB
TAFDRT
TAF AMD
KDRT 281311Z 2813/2912 11008KT 1/2SM FG OVC005
     FM281400 12009KT 3SM BR BKN012
     FM281600 12012KT P6SM BKN025
     FM281800 13015KT P6SM SCT035
     FM290100 11009KT P6SM SCT035
     FM290600 11008KT P6SM BKN012=



000
FTUS44 KEWX 281239 AAA
TAFDRT
TAF AMD
KDRT 281239Z 2813/2912 12006KT P6SM BKN012
     FM281400 12009KT 3SM BR BKN012
     FM281600 12012KT P6SM BKN025
     FM281800 13015KT P6SM SCT035
     FM290100 11009KT P6SM SCT035
     FM290600 11008KT P6SM BKN012=



000
FTUS44 KEWX 281123
TAFDRT
TAF
KDRT 281123Z 2812/2912 12006KT P6SM BKN011
     FM281800 13015KT P6SM SCT035
     FM290100 11009KT P6SM SCT035
     FM290600 11008KT P6SM BKN012=



000
FTUS44 KEWX 281123
TAFAUS
TAF
KAUS 281123Z 2812/2918 16006KT P6SM OVC011
     FM281630 15012KT P6SM FEW020
     FM282200 15014KT P6SM BKN035
     FM290200 14012KT P6SM OVC018
     FM290500 16008KT P6SM OVC007
     FM291500 16012KT P6SM VCSH BKN012 OVC035=



000
FTUS44 KEWX 281123
TAFSAT
TAF
KSAT 281123Z 2812/2918 12008KT P6SM OVC012
     FM281700 13012KT P6SM FEW020
     FM282000 13012KT P6SM BKN035
     FM290200 14010KT P6SM OVC014
     FM290500 16008KT P6SM OVC007
     FM291500 16011KT P6SM VCSH BKN012 OVC035=



000
FTUS44 KEWX 281035 AAC
TAFAUS
TAF AMD
KAUS 281035Z 2811/2912 16006KT 4SM BR OVC006
     FM281700 14012KT P6SM FEW012
     FM282200 15014KT P6SM BKN035
     FM290200 14012KT P6SM OVC014
     FM290700 16008KT P6SM OVC007=



000
FTUS44 KEWX 281001 AAA
TAFSAT
TAF AMD
KSAT 281001Z 2810/2912 12009KT 5SM BR OVC007
     FM281700 13010KT P6SM FEW012
     FM282200 13012KT P6SM BKN035
     FM290200 14009KT P6SM OVC014
     FM290700 14007KT P6SM OVC007=



000
FTUS44 KEWX 281001 AAB
TAFAUS
TAF AMD
KAUS 281001Z 2810/2912 15007KT 3SM BR OVC004
     FM281700 14012KT P6SM FEW012
     FM282200 15014KT P6SM BKN035
     FM290200 14012KT P6SM OVC014
     FM290700 16008KT P6SM OVC007=



000
FTUS44 KEWX 280914 AAA
TAFAUS
TAF AMD
KAUS 280914Z 2809/2912 00000KT 3/4SM BR VV002
     FM281700 14012KT P6SM FEW012
     FM282200 15014KT P6SM BKN035
     FM290200 14012KT P6SM OVC014
     FM290700 16008KT P6SM OVC007=



000
FTUS44 KEWX 280539
TAFAUS
TAF
KAUS 280539Z 2806/2912 00000KT P6SM SKC
     FM280800 14006KT 3SM BR BKN005
     FM281700 14012KT P6SM FEW012
     FM282200 15014KT P6SM BKN035
     FM290200 14012KT P6SM OVC014
     FM290700 16008KT P6SM OVC007=



000
FTUS44 KEWX 280539
TAFDRT
TAF
KDRT 280539Z 2806/2906 12006KT P6SM SKC
     FM281300 13007KT P6SM BKN012
     FM281800 13015KT P6SM FEW035
     FM290100 11009KT P6SM SCT035=



000
FTUS44 KEWX 280539
TAFSAT
TAF
KSAT 280539Z 2806/2912 00000KT P6SM SKC
     FM280730 12005KT 5SM BR BKN005
     FM281700 13010KT P6SM FEW012
     FM282200 13012KT P6SM BKN035
     FM290200 14009KT P6SM OVC014
     FM290700 14007KT P6SM OVC007=



000
FTUS44 KEWX 272339
TAFDRT
TAF
KDRT 272339Z 2800/2824 14009KT P6SM SKC
     FM280200 11005KT P6SM SKC
     FM281200 13007KT P6SM SCT015
     FM281300 10007KT P6SM BKN015
     FM281630 13015KT P6SM SCT200=



000
FTUS44 KEWX 272339
TAFSAT
TAF
KSAT 272339Z 2800/2906 VRB04KT P6SM SKC
     FM280800 16005KT 5SM BR BKN006
     FM281600 15008KT P6SM SCT009 BKN022
     FM282200 14010KT P6SM BKN035
     FM290500 16009KT P6SM OVC020=



000
FTUS44 KEWX 272339
TAFAUS
TAF
KAUS 272339Z 2800/2906 VRB03KT P6SM SKC
     FM280900 14006KT 3SM BR BKN006
     FM281600 16010KT P6SM SCT009 BKN025
     FM282000 15014KT P6SM BKN040
     FM290500 16009KT P6SM OVC020=



000
FTUS44 KEWX 271737
TAFAUS
TAF
KAUS 271737Z 2718/2824 30007KT P6SM SKC
     FM272300 VRB03KT P6SM SKC
     FM280900 14006KT 3SM BR BKN006
     FM281600 16010KT P6SM SCT009 BKN025
     FM282000 15014KT P6SM BKN040=



000
FTUS44 KEWX 271737
TAFSAT
TAF
KSAT 271737Z 2718/2824 32005KT P6SM SKC
     FM272200 VRB04KT P6SM SKC
     FM280800 16005KT 5SM BR BKN006
     FM281600 15008KT P6SM SCT009 BKN022
     FM282100 14010KT P6SM BKN040=



000
FTUS44 KEWX 271737
TAFDRT
TAF
KDRT 271737Z 2718/2818 31005KT P6SM SKC
     FM272300 14009KT P6SM SKC
     FM280200 11005KT P6SM SKC
     FM281200 13007KT P6SM SCT015
      TEMPO 2812/2816 BKN015=



000
FTUS44 KEWX 271500 AAA
TAFDRT
TAF AMD
KDRT 271500Z 2715/2812 31007KT P6SM SKC
     FM272000 VRB03KT P6SM SKC
     FM280100 11005KT P6SM SKC=



000
FTUS44 KEWX 271242 AAA
TAFAUS
TAF AMD
KAUS 271242Z 2713/2818 22005KT P6SM FEW011 SCT090 SCT120
     FM271400 32007KT P6SM SKC
     FM272300 VRB03KT P6SM SKC
     FM280900 16006KT 3SM BR BKN006
     FM281700 15008KT P6SM SCT012=



000
FTUS44 KEWX 271242 AAA
TAFSAT
TAF AMD
KSAT 271242Z 2713/2818 16003KT P6SM BKN110 BKN160
     FM271400 33006KT P6SM SKC
     FM272200 24005KT P6SM SKC
     FM280800 16005KT 5SM BR BKN006
     FM281700 15008KT P6SM SCT012=



000
FTUS44 KEWX 271124
TAFSAT
TAF
KSAT 271124Z 2712/2818 13007KT P6SM BKN100
     FM271400 33006KT P6SM FEW100
     FM272200 22005KT P6SM SKC
     FM280900 16005KT 5SM BR BKN006
     FM281700 15008KT P6SM SCT012=



000
FTUS44 KEWX 271124
TAFAUS
TAF
KAUS 271124Z 2712/2818 21004KT P6SM BKN100
     FM271400 30007KT P6SM FEW100
     FM272300 16005KT P6SM SKC
     FM280900 16006KT 3SM BR BKN006
     FM281700 15008KT P6SM SCT012=



000
FTUS44 KEWX 271124
TAFDRT
TAF
KDRT 271124Z 2712/2812 32005KT P6SM SKC
     FM271400 31012KT P6SM SKC
     FM272000 VRB03KT P6SM SKC
     FM280100 11005KT P6SM SKC=



000
FTUS44 KEWX 271124
TAFSAT
TAF
KSAT 271124Z 2712/2818 13007KT P6SM BKN100
     FM271400 33006KT P6SM FEW100
     FM272200 22005KT P6SM SKC
     FM280900 16005KT 5SM BR BKN006
     FM281700 15008KT P6SM SCT012=



000
FTUS44 KEWX 271124
TAFDRT
TAF
KDRT 271124Z 2712/2812 32005KT P6SM SKC
     FM271400 31012KT P6SM SKC
     FM272000 VRB03KT P6SM SKC
     FM280100 11005KT P6SM SKC=



000
FTUS44 KEWX 271124
TAFAUS
TAF
KAUS 271124Z 2712/2818 21004KT P6SM BKN100
     FM271400 30007KT P6SM FEW100
     FM272300 16005KT P6SM SKC
     FM280900 16006KT 3SM BR BKN006
     FM281700 15008KT P6SM SCT012=



000
FTUS44 KEWX 271020 AAF
TAFSAT
TAF AMD
KSAT 271020Z 2710/2812 13006KT P6SM FEW035 BKN070 OVC150
     FM271400 33006KT P6SM FEW070
     FM272100 24005KT P6SM SKC
     FM281000 16005KT 5SM BR BKN006=



000
FTUS44 KEWX 271005 AAD
TAFAUS
TAF AMD
KAUS 271005Z 2710/2812 05006KT P6SM TSRA SCT045CB SCT080 BKN090
     FM271100 31005KT P6SM SCT012 BKN060
     FM271300 30009KT P6SM FEW060
     FM272300 16005KT P6SM SKC
     FM280900 16006KT 3SM BR BKN006=



000
FTUS44 KEWX 271005 AAE
TAFSAT
TAF AMD
KSAT 271005Z 2710/2812 15003KT P6SM -TSRA FEW035CB BKN070 OVC120
     FM271200 32008KT P6SM FEW012 BKN060
     FM271400 33006KT P6SM FEW060
     FM272100 24005KT P6SM SKC
     FM281000 16005KT 5SM BR BKN006=



000
FTUS44 KEWX 270830 AAC
TAFAUS
TAF AMD
KAUS 270830Z 2709/2812 01009KT 3SM TSRA SCT027CB BKN070 OVC090
     FM271100 31005KT P6SM SCT012 BKN060
     FM271300 30009KT P6SM FEW060
     FM272300 16005KT P6SM SKC
     FM280900 16006KT 3SM BR BKN006=



000
FTUS44 KEWX 270830 AAC
TAFAUS
TAF AMD
KAUS 270830Z 2709/2812 01009KT 3SM TSRA SCT027CB BKN070 OVC090
     FM271100 31005KT P6SM SCT012 BKN060
     FM271300 30009KT P6SM FEW060
     FM272300 16005KT P6SM SKC
     FM280900 16006KT 3SM BR BKN006=



000
FTUS44 KEWX 270830 AAD
TAFSAT
TAF AMD
KSAT 270830Z 2709/2812 33014KT 3SM +TSRA SCT026CB BKN050 OVC070
     FM271100 32008KT P6SM FEW012 BKN060
     FM271400 33006KT P6SM FEW060
     FM272100 24005KT P6SM SKC
     FM281000 16005KT 5SM BR BKN006=



000
FTUS44 KEWX 270825 AAB
TAFAUS
TAF AMD
KAUS 270825Z 2708/2812 31010G20KT 6SM -TSRA BR BKN017CB OVC070
     FM271100 31005KT P6SM SCT012 BKN060
     FM271300 30009KT P6SM FEW060
     FM272300 16005KT P6SM SKC
     FM280900 16006KT 3SM BR BKN006=



000
FTUS44 KEWX 270823 AAC
TAFSAT
TAF AMD
KSAT 270823Z 2708/2812 31014KT P6SM -TSRA SCT026CB BKN050 OVC070
     FM271100 32008KT P6SM FEW012 BKN060
     FM271400 33006KT P6SM FEW060
     FM272100 24005KT P6SM SKC
     FM281000 16005KT 5SM BR BKN006=



000
FTUS44 KEWX 270823 AAC
TAFSAT
TAF AMD
KSAT 270823Z 2708/2812 31014KT P6SM -TSRA SCT026CB BKN050 OVC070
     FM271100 32008KT P6SM FEW012 BKN060
     FM271400 33006KT P6SM FEW060
     FM272100 24005KT P6SM SKC
     FM281000 16005KT 5SM BR BKN006=



000
FTUS44 KEWX 270806 AAA
TAFDRT
TAF AMD
KDRT 270806Z 2708/2806 35007KT P6SM FEW040 BKN060 OVC070
     FM271400 31012KT P6SM SKC
     FM272000 VRB03KT P6SM SKC
     FM280100 11005KT P6SM SKC=



000
FTUS44 KEWX 270713 AAB
TAFSAT
TAF AMD
KSAT 270713Z 2707/2812 17008KT 4SM BR BKN011 OVC019
      TEMPO 2708/2711 31020G35KT 3SM TSRA BR SCT015 OVC035CB
     FM271200 32005KT P6SM FEW012 BKN060
     FM271400 33006KT P6SM FEW060
     FM272100 24005KT P6SM SKC
     FM281000 16005KT 5SM BR BKN006=



000
FTUS44 KEWX 270657 AAA
TAFSAT
TAF AMD
KSAT 270657Z 2707/2812 17010KT 4SM BR BKN009 OVC019
      TEMPO 2708/2711 3SM TSRA BR SCT015 OVC035CB
     FM271200 32005KT P6SM FEW012 BKN060
     FM271400 33006KT P6SM FEW060
     FM272100 24005KT P6SM SKC
     FM281000 16005KT 5SM BR BKN006=



000
FTUS44 KEWX 270656 AAA
TAFAUS
TAF AMD
KAUS 270656Z 2707/2812 18015KT 4SM HZ OVC015
      TEMPO 2707/2710 31020G40KT 2SM TSRA BR SCT015 OVC035CB
     FM271100 16005KT P6SM SCT012 BKN060
     FM271300 26009KT P6SM FEW060
     FM272300 16005KT P6SM SKC
     FM280900 16006KT 3SM BR BKN006=



000
FTUS44 KEWX 270524
TAFSAT
TAF
KSAT 270524Z 2706/2812 14011KT 4SM BR OVC011
      TEMPO 2708/2711 3SM TSRA BR SCT015 OVC035CB
     FM271200 32005KT P6SM FEW012 BKN060
     FM271400 33006KT P6SM FEW060
     FM272100 24005KT P6SM SKC
     FM281000 16005KT 5SM BR BKN006=



000
FTUS44 KEWX 270524
TAFAUS
TAF
KAUS 270524Z 2706/2812 17012KT 4SM HZ OVC019
      TEMPO 2707/2710 2SM TSRA BR SCT015 OVC035CB
     FM271100 16005KT P6SM SCT012 BKN060
     FM271300 26009KT P6SM FEW060
     FM272300 16005KT P6SM SKC
     FM280900 16006KT 3SM BR BKN006=



000
FTUS44 KEWX 270524
TAFDRT
TAF
KDRT 270524Z 2706/2806 05007KT 5SM BR SKC
     FM270700 32007KT P6SM SKC
     FM271400 31012KT P6SM SKC
     FM272000 VRB03KT P6SM SKC
     FM280100 11005KT P6SM SKC=



000
FTUS44 KEWX 270425 AAB
TAFSAT
TAF AMD
KSAT 270425Z 2704/2806 15014KT 4SM BR OVC012
      TEMPO 2707/2709 5SM TSRA BR OVC015CB
     FM271000 32005KT P6SM OVC025
     FM271400 29010KT P6SM FEW250=



000
FTUS44 KEWX 270425 AAB
TAFAUS
TAF AMD
KAUS 270425Z 2704/2806 18016KT 4SM HZ OVC017
      TEMPO 2707/2709 4SM TSRA BR SCT015 OVC025CB
     FM270900 16005KT P6SM OVC015
     FM271300 26010KT P6SM SCT050
     FM271500 27007KT P6SM FEW250=



000
FTUS44 KEWX 270347 AAA
TAFAUS
TAF AMD
KAUS 270347Z 2704/2806 16011KT P6SM OVC015
      TEMPO 2707/2709 4SM TSRA BR SCT015 OVC025CB
     FM270900 16005KT P6SM OVC015
     FM271300 26010KT P6SM SCT050
     FM271500 27007KT P6SM FEW250=



000
FTUS44 KEWX 270205 AAA
TAFDRT
TAF AMD
KDRT 270205Z 2702/2724 11010KT P6SM SKC
     FM270500 32010KT P6SM SCT250
     FM271700 31010G20KT P6SM SKC=



000
FTUS44 KEWX 270204 AAA
TAFSAT
TAF AMD
KSAT 270204Z 2702/2806 14014KT P6SM BKN015
      TEMPO 2707/2709 5SM TSRA BR OVC015CB
     FM271000 32005KT P6SM OVC025
     FM271400 29010KT P6SM FEW250=



000
FTUS44 KEWX 262325 CCA
TAFAUS
TAF COR
KAUS 262325Z 2700/2806 16012KT 5SM HZ BKN035
     FM270400 16009KT P6SM OVC020
      TEMPO 2707/2709 4SM TSRA BR SCT015 OVC025CB
     FM270900 16005KT P6SM OVC015
     FM271300 26010KT P6SM SCT050
     FM271500 27007KT P6SM FEW250=



000
FTUS44 KEWX 262320
TAFAUS
TAF
KAUS 262320Z 2700/2806 17015G25KT P6SM BKN035
     FM270400 16009KT P6SM OVC020
      TEMPO 2706/2709 4SM TSRA BR SCT015 OVC025CB
     FM270900 16005KT P6SM OVC015
     FM271300 26010KT P6SM SCT050
     FM271500 27007KT P6SM FEW250=



000
FTUS44 KEWX 262320
TAFAUS
TAF
KAUS 262320Z 2700/2806 17015G25KT P6SM BKN035
     FM270400 16009KT P6SM OVC020
      TEMPO 2706/2709 4SM TSRA BR SCT015 OVC025CB
     FM270900 16005KT P6SM OVC015
     FM271300 26010KT P6SM SCT050
     FM271500 27007KT P6SM FEW250=



000
FTUS44 KEWX 262320
TAFSAT
TAF
KSAT 262320Z 2700/2806 14012KT P6SM BKN040
     FM270300 15011G17KT P6SM OVC020
      TEMPO 2707/2709 5SM TSRA BR SCT015 OVC025CB
     FM271000 32005KT P6SM OVC025
     FM271400 29010KT P6SM FEW250=



000
FTUS44 KEWX 262320
TAFSAT
TAF
KSAT 262320Z 2700/2806 14012KT P6SM BKN040
     FM270300 15011G17KT P6SM OVC020
      TEMPO 2707/2709 5SM TSRA BR SCT015 OVC025CB
     FM271000 32005KT P6SM OVC025
     FM271400 29010KT P6SM FEW250=



000
FTUS44 KEWX 262320
TAFDRT
TAF
KDRT 262320Z 2700/2724 12010G20KT P6SM SKC
     FM270500 32010KT P6SM SCT250
     FM271700 31010G20KT P6SM SKC=



000
FTUS44 KEWX 262320
TAFDRT
TAF
KDRT 262320Z 2700/2724 12010G20KT P6SM SKC
     FM270500 32010KT P6SM SCT250
     FM271700 31010G20KT P6SM SKC=



000
FTUS44 KEWX 261740
TAFSAT
TAF
KSAT 261740Z 2618/2724 15012KT P6SM BKN025
     FM261900 15012G22KT P6SM OVC040
      TEMPO 2703/2706 4SM TSRA BR OVC030CB
     FM270600 13005KT P6SM OVC015
     FM271500 29010KT P6SM SCT050=



000
FTUS44 KEWX 261740
TAFDRT
TAF
KDRT 261740Z 2618/2718 11012KT 4SM BR OVC025
     FM261830 14010KT P6SM SCT040
     FM270600 32010KT P6SM SCT250=



000
FTUS44 KEWX 261740
TAFAUS
TAF
KAUS 261740Z 2618/2724 17013G23KT P6SM OVC040
     FM262200 17015G25KT P6SM OVC030
      TEMPO 2703/2706 4SM TSRA BR OVC030CB
     FM270600 16005KT P6SM OVC015
     FM271500 26010KT P6SM SCT050=



000
FTUS44 KEWX 261740
TAFDRT
TAF
KDRT 261740Z 2618/2718 11012KT 4SM BR OVC025
     FM261830 14010KT P6SM SCT040
     FM270600 32010KT P6SM SCT250=



000
FTUS44 KEWX 261740
TAFAUS
TAF
KAUS 261740Z 2618/2724 17013G23KT P6SM OVC040
     FM262200 17015G25KT P6SM OVC030
      TEMPO 2703/2706 4SM TSRA BR OVC030CB
     FM270600 16005KT P6SM OVC015
     FM271500 26010KT P6SM SCT050=



000
FTUS44 KEWX 261506 AAB
TAFDRT
TAF AMD
KDRT 261506Z 2615/2712 11012KT 4SM BR OVC015
     FM261900 19010KT P6SM OVC040
     FM270000 VRB06KT P6SM SCT250=



000
FTUS44 KEWX 261506 AAB
TAFDRT
TAF AMD
KDRT 261506Z 2615/2712 11012KT 4SM BR OVC015
     FM261900 19010KT P6SM OVC040
     FM270000 VRB06KT P6SM SCT250=



000
FTUS44 KEWX 261503 AAA
TAFSAT
TAF AMD
KSAT 261503Z 2615/2718 15012KT P6SM BKN015 BKN250
     FM261900 16013G23KT P6SM OVC040
     FM262200 17013G23KT P6SM VCTS OVC035CB
     FM270300 13009G19KT P6SM VCTS OVC019CB=



000
FTUS44 KEWX 261357 AAA
TAFDRT
TAF AMD
KDRT 261357Z 2614/2712 11013KT 4SM BR OVC025
     FM261500 19010KT P6SM OVC040
     FM270000 VRB06KT P6SM SCT250=



000
FTUS44 KEWX 261120
TAFDRT
TAF
KDRT 261120Z 2612/2712 11013KT 6SM BR OVC015
     FM261700 19010KT P6SM OVC040
     FM270000 VRB06KT P6SM SCT250=



000
FTUS44 KEWX 261120
TAFAUS
TAF
KAUS 261120Z 2612/2718 17012KT P6SM OVC026
     FM261900 17013G23KT P6SM OVC040
     FM262200 17015G25KT P6SM VCTS OVC030CB
     FM270300 16008G16KT P6SM VCTS OVC019CB=



000
FTUS44 KEWX 261120
TAFDRT
TAF
KDRT 261120Z 2612/2712 11013KT 6SM BR OVC015
     FM261700 19010KT P6SM OVC040
     FM270000 VRB06KT P6SM SCT250=



000
FTUS44 KEWX 261120
TAFSAT
TAF
KSAT 261120Z 2612/2718 15009KT P6SM BKN022 BKN250
     FM261900 16013G23KT P6SM OVC040
     FM262200 17013G23KT P6SM VCTS OVC035CB
     FM270300 13009G19KT P6SM VCTS OVC019CB=



000
FTUS44 KEWX 261120
TAFSAT
TAF
KSAT 261120Z 2612/2718 15009KT P6SM BKN022 BKN250
     FM261900 16013G23KT P6SM OVC040
     FM262200 17013G23KT P6SM VCTS OVC035CB
     FM270300 13009G19KT P6SM VCTS OVC019CB=



000
FTUS44 KEWX 261120
TAFAUS
TAF
KAUS 261120Z 2612/2718 17012KT P6SM OVC026
     FM261900 17013G23KT P6SM OVC040
     FM262200 17015G25KT P6SM VCTS OVC030CB
     FM270300 16008G16KT P6SM VCTS OVC019CB=



000
FTUS44 KEWX 261043 AAA
TAFAUS
TAF AMD
KAUS 261043Z 2611/2712 16010KT P6SM BKN018 OVC025
     FM261900 17013G23KT P6SM OVC030
     FM262130 17013G25KT P6SM VCTS OVC050CB
     FM270400 16008G16KT P6SM VCTS OVC030CB=



000
FTUS44 KEWX 261043 AAA
TAFSAT
TAF AMD
KSAT 261043Z 2611/2712 14012KT P6SM OVC011
     FM261900 16013G23KT P6SM OVC030
     FM262100 16013G23KT P6SM OVC050
     FM262200 17013G23KT P6SM VCTS OVC035CB
     FM270400 13009G19KT P6SM VCTS OVC019CB=



000
FTUS44 KEWX 261043 AAA
TAFSAT
TAF AMD
KSAT 261043Z 2611/2712 14012KT P6SM OVC011
     FM261900 16013G23KT P6SM OVC030
     FM262100 16013G23KT P6SM OVC050
     FM262200 17013G23KT P6SM VCTS OVC035CB
     FM270400 13009G19KT P6SM VCTS OVC019CB=



000
FTUS44 KEWX 261043 AAA
TAFAUS
TAF AMD
KAUS 261043Z 2611/2712 16010KT P6SM BKN018 OVC025
     FM261900 17013G23KT P6SM OVC030
     FM262130 17013G25KT P6SM VCTS OVC050CB
     FM270400 16008G16KT P6SM VCTS OVC030CB=



000
FTUS44 KEWX 260520
TAFSAT
TAF
KSAT 260520Z 2606/2712 14012KT P6SM OVC011
     FM260700 15012KT 5SM BR OVC009
     FM261500 17012KT P6SM OVC015
     FM261900 16013G23KT P6SM OVC030
     FM262100 16013G23KT P6SM OVC050
     FM262200 17013G23KT P6SM VCTS OVC035CB
     FM270400 13009G19KT P6SM VCTS OVC019CB=



000
FTUS44 KEWX 260520
TAFDRT
TAF
KDRT 260520Z 2606/2706 11010KT P6SM BKN100
     FM261000 11008KT P6SM OVC015
     FM261600 14010KT P6SM OVC040
     FM270200 VRB06KT P6SM SCT250=



000
FTUS44 KEWX 260520
TAFAUS
TAF
KAUS 260520Z 2606/2712 16010KT P6SM BKN018 OVC025
     FM260700 17010KT 5SM BR OVC009
     FM261500 18012KT 5SM BR OVC015
     FM261900 17013G23KT P6SM OVC030
     FM262130 17013G25KT P6SM VCTS OVC050CB
     FM270400 16008G16KT P6SM VCTS OVC030CB=



000
FTUS44 KEWX 260333 AAE
TAFSAT
TAF AMD
KSAT 260333Z 2604/2706 14011KT P6SM BKN012 OVC080
     FM260600 15010KT 4SM BR OVC007
     FM261600 17012KT P6SM OVC025
     FM261900 17012KT P6SM OVC050
     FM262200 17012KT P6SM VCTS OVC030CB=



000
FTUS44 KEWX 260329 AAD
TAFSAT
TAF AMD
KSAT 260329Z 2603/2706 13010KT P6SM FEW080 SCT250
     FM260400 13010KT P6SM OVC015
     FM260600 15010KT 4SM BR OVC007
     FM261600 17012KT P6SM OVC025
     FM261900 17012KT P6SM OVC050
     FM262200 17012KT P6SM VCTS OVC030CB=



000
FTUS44 KEWX 260329 AAD
TAFSAT
TAF AMD
KSAT 260329Z 2603/2706 13010KT P6SM FEW080 SCT250
     FM260400 13010KT P6SM OVC015
     FM260600 15010KT 4SM BR OVC007
     FM261600 17012KT P6SM OVC025
     FM261900 17012KT P6SM OVC050
     FM262200 17012KT P6SM VCTS OVC030CB=



000
FTUS44 KEWX 260026 AAC
TAFSAT
TAF AMD
KSAT 260026Z 2600/2706 12016KT P6SM VCTS SCT045CB BKN090 BKN250
     FM260040 14012KT P6SM SCT025
     FM260300 13010KT P6SM OVC020
     FM260600 15010KT 4SM BR OVC007
     FM261600 17012KT P6SM OVC025
     FM261900 17012KT P6SM OVC050
     FM262200 17012KT P6SM VCTS OVC030CB=



000
FTUS44 KEWX 260026 AAC
TAFSAT
TAF AMD
KSAT 260026Z 2600/2706 12016KT P6SM VCTS SCT045CB BKN090 BKN250
     FM260040 14012KT P6SM SCT025
     FM260300 13010KT P6SM OVC020
     FM260600 15010KT 4SM BR OVC007
     FM261600 17012KT P6SM OVC025
     FM261900 17012KT P6SM OVC050
     FM262200 17012KT P6SM VCTS OVC030CB=



000
FTUS44 KEWX 260012 AAB
TAFSAT
TAF AMD
KSAT 260012Z 2600/2706 16025G35KT 2SM TSRA SCT045CB BKN060 BKN250
     FM260020 14012KT P6SM SCT025
     FM260300 13010KT P6SM OVC020
     FM260600 15010KT 4SM BR OVC007
     FM261600 17012KT P6SM OVC025
     FM261900 17012KT P6SM OVC050
     FM262200 17012KT P6SM VCTS OVC030CB=



000
FTUS44 KEWX 260012 AAB
TAFSAT
TAF AMD
KSAT 260012Z 2600/2706 16025G35KT 2SM TSRA SCT045CB BKN060 BKN250
     FM260020 14012KT P6SM SCT025
     FM260300 13010KT P6SM OVC020
     FM260600 15010KT 4SM BR OVC007
     FM261600 17012KT P6SM OVC025
     FM261900 17012KT P6SM OVC050
     FM262200 17012KT P6SM VCTS OVC030CB=



000
FTUS44 KEWX 252359 AAA
TAFSAT
TAF AMD
KSAT 252359Z 2600/2706 16025G35KT 2SM TSRA SCT045CB BKN060 BKN250
     FM260015 14012KT P6SM SCT025
     FM260300 13010KT P6SM OVC020
     FM260600 15010KT 4SM BR OVC007
     FM261600 17012KT P6SM OVC025
     FM261900 17012KT P6SM OVC050
     FM262200 17012KT P6SM VCTS OVC030CB=



000
FTUS44 KEWX 252359 AAA
TAFSAT
TAF AMD
KSAT 252359Z 2600/2706 16025G35KT 2SM TSRA SCT045CB BKN060 BKN250
     FM260015 14012KT P6SM SCT025
     FM260300 13010KT P6SM OVC020
     FM260600 15010KT 4SM BR OVC007
     FM261600 17012KT P6SM OVC025
     FM261900 17012KT P6SM OVC050
     FM262200 17012KT P6SM VCTS OVC030CB=



    US Dept of Commerce
    National Oceanic and Atmospheric Administration
    National Weather Service
    1325 East West Highway
    Silver Spring, MD 20910
    Page Author: NWS Internet Services Team
Disclaimer
Information Quality
Credits
Glossary
Privacy Policy
Freedom of Information Act (FOIA)
About Us
Career Opportunities